Time;durP1;ratioP1;P1;durP2;ratioP2;P2;SDS_P1;SDS_P2;PMS_P1;PMS_P2;Temp;Humidity;BMP_temperature;BMP_pressure;BME280_temperature;BME280_humidity;BME280_pressure;Samples;Min_cycle;Max_cycle;Signal;HPM_P1;HPM_P2
2023/07/26 00:01:00;;;;;;;12.95;4.63;;;;;;;14.30;85.70;100983.69;5032079;28;20057;-77
2023/07/26 00:03:25;;;;;;;11.65;4.63;;;;;;;14.32;85.24;100984.44;5030929;28;20026;-77
2023/07/26 00:05:51;;;;;;;14.32;4.55;;;;;;;14.30;84.78;100989.94;5030443;28;20037;-77
2023/07/26 00:08:16;;;;;;;12.15;4.65;;;;;;;14.32;84.62;100990.69;5032103;28;20116;-77
2023/07/26 00:10:48;;;;;;;15.52;4.78;;;;;;;14.32;85.04;100984.44;5031149;28;20164;-77
2023/07/26 00:13:15;;;;;;;13.45;4.72;;;;;;;14.31;84.55;100983.56;5031727;28;20408;-77
2023/07/26 00:15:41;;;;;;;12.68;4.85;;;;;;;14.31;85.10;100985.41;5031411;28;20058;-77
2023/07/26 00:18:07;;;;;;;15.82;4.80;;;;;;;14.30;84.38;100984.53;5031985;28;20069;-77
2023/07/26 00:20:32;;;;;;;13.63;5.00;;;;;;;14.27;84.39;100978.56;5031738;28;20021;-77
2023/07/26 00:22:58;;;;;;;14.07;4.82;;;;;;;14.28;84.54;100981.13;5031740;28;20122;-77
2023/07/26 00:25:23;;;;;;;14.32;5.13;;;;;;;14.26;85.59;100983.09;5031512;28;20036;-77
2023/07/26 00:27:48;;;;;;;17.52;5.20;;;;;;;14.25;84.90;100978.69;5031613;28;20485;-77
2023/07/26 00:30:14;;;;;;;11.40;4.75;;;;;;;14.24;86.44;100974.25;5025256;28;20063;-77
2023/07/26 00:32:40;;;;;;;14.35;5.32;;;;;;;14.23;85.37;100982.50;5031594;28;20024;-77
2023/07/26 00:35:06;;;;;;;16.55;5.38;;;;;;;14.25;85.01;100978.69;5031463;28;20037;-77
2023/07/26 00:37:31;;;;;;;12.02;4.72;;;;;;;14.21;85.55;100974.53;5029929;28;20026;-77
2023/07/26 00:39:56;;;;;;;14.40;5.05;;;;;;;14.20;85.37;100982.78;5031358;28;20033;-77
2023/07/26 00:42:22;;;;;;;13.88;5.25;;;;;;;14.19;85.91;100981.06;5033326;28;20033;-77
2023/07/26 00:44:47;;;;;;;16.55;6.00;;;;;;;14.17;85.56;100983.88;5035705;28;20838;-77
2023/07/26 00:47:13;;;;;;;15.52;5.50;;;;;;;14.13;86.45;100980.59;5035637;28;20053;-77
2023/07/26 00:49:38;;;;;;;15.50;5.93;;;;;;;14.11;86.91;100977.16;5035784;28;20025;-77
2023/07/26 00:52:04;;;;;;;12.38;4.95;;;;;;;14.11;86.75;100977.16;5035395;28;20029;-77
2023/07/26 00:54:29;;;;;;;14.25;5.25;;;;;;;14.08;86.59;100974.72;5034225;28;20507;-77
2023/07/26 00:56:55;;;;;;;14.73;5.28;;;;;;;14.05;86.79;100975.00;5035275;28;20039;-77
2023/07/26 00:59:20;;;;;;;16.55;6.05;;;;;;;14.05;88.96;100974.16;5035418;28;20025;-77
2023/07/26 01:01:45;;;;;;;12.93;4.88;;;;;;;14.02;88.91;100972.56;5036195;28;20108;-76
2023/07/26 01:04:11;;;;;;;15.88;5.65;;;;;;;13.97;89.17;100975.66;5035566;28;20033;-76
2023/07/26 01:07:07;;;;;;;12.75;5.03;;;;;;;13.94;89.13;100978.63;5033880;28;20071;-76
2023/07/26 01:09:46;;;;;;;16.52;5.35;;;;;;;13.92;89.54;100980.59;5035508;28;20492;-76
2023/07/26 01:12:28;;;;;;;14.95;5.72;;;;;;;13.90;88.15;100977.19;5034133;28;20083;-76
2023/07/26 01:15:07;;;;;;;16.67;6.05;;;;;;;13.83;89.05;100981.38;5027555;28;20029;-76
2023/07/26 01:17:32;;;;;;;17.10;5.37;;;;;;;13.77;89.05;100977.34;5035188;28;20508;-76
2023/07/26 01:19:57;;;;;;;13.98;5.15;;;;;;;13.74;89.15;100982.19;5033796;28;20025;-76
2023/07/26 01:22:23;;;;;;;17.38;5.78;;;;;;;13.71;89.87;100982.44;5035227;28;20393;-76
2023/07/26 01:24:48;;;;;;;14.45;5.15;;;;;;;13.63;89.88;100981.25;5034955;28;20026;-76
2023/07/26 01:27:13;;;;;;;14.38;5.40;;;;;;;13.61;89.87;100975.09;5033066;28;20489;-76
2023/07/26 01:29:39;;;;;;;19.33;5.65;;;;;;;13.58;90.19;100983.44;5033726;28;20525;-76
2023/07/26 01:32:07;;;;;;;16.10;5.97;;;;;;;13.58;90.75;100982.59;5034841;28;20018;-76
2023/07/26 01:34:33;;;;;;;13.95;5.50;;;;;;;13.54;90.74;100978.44;5034838;28;20037;-76
2023/07/26 01:37:00;;;;;;;16.50;5.43;;;;;;;13.50;91.25;100975.16;5033503;28;20384;-76
2023/07/26 01:39:27;;;;;;;13.35;5.35;;;;;;;13.46;91.27;100971.00;5035015;28;20469;-76
2023/07/26 01:41:53;;;;;;;17.10;6.32;;;;;;;13.45;91.61;100985.47;5034692;28;20033;-76
2023/07/26 01:44:18;;;;;;;15.18;6.00;;;;;;;13.46;90.78;100985.34;5025237;28;20028;-76
2023/07/26 01:46:43;;;;;;;17.00;5.85;;;;;;;13.48;91.36;100982.50;5033257;28;20025;-76
2023/07/26 01:49:09;;;;;;;17.58;5.85;;;;;;;13.48;91.73;100971.72;5033198;28;20029;-76
2023/07/26 01:51:34;;;;;;;16.98;5.82;;;;;;;13.52;91.27;100973.19;5033327;28;20492;-76
2023/07/26 01:53:59;;;;;;;15.85;5.82;;;;;;;13.55;91.08;100969.38;5032484;28;20041;-76
2023/07/26 01:56:25;;;;;;;15.32;5.88;;;;;;;13.54;90.87;100971.19;5032975;28;20037;-76
2023/07/26 01:58:50;;;;;;;16.10;5.85;;;;;;;13.60;90.79;100970.69;5033150;28;20396;-76
2023/07/26 02:01:15;;;;;;;13.68;5.38;;;;;;;13.64;90.46;100966.72;5032192;28;20025;-76
2023/07/26 02:03:41;;;;;;;14.85;5.30;;;;;;;13.69;90.67;100970.88;5034411;28;20033;-76
2023/07/26 02:06:06;;;;;;;15.35;5.60;;;;;;;13.71;90.40;100966.22;5032889;28;20034;-76
2023/07/26 02:08:31;;;;;;;13.52;5.10;;;;;;;13.72;89.21;100966.09;5027380;28;20037;-76
2023/07/26 02:10:57;;;;;;;13.93;4.80;;;;;;;13.72;89.58;100965.22;5034255;28;20037;-76
2023/07/26 02:13:22;;;;;;;14.98;5.15;;;;;;;13.71;89.40;100960.84;5034199;28;20496;-76
2023/07/26 02:15:47;;;;;;;12.75;4.88;;;;;;;13.72;88.78;100951.72;5032503;28;20056;-76
2023/07/26 02:18:13;;;;;;;14.13;4.90;;;;;;;13.74;89.71;100963.25;5034085;28;20033;-76
2023/07/26 02:20:38;;;;;;;16.42;4.80;;;;;;;13.73;88.18;100964.25;5033930;28;20030;-76
2023/07/26 02:23:03;;;;;;;11.75;4.57;;;;;;;13.71;88.94;100960.84;5034300;28;20028;-76
2023/07/26 02:25:29;;;;;;;12.32;4.35;;;;;;;13.63;88.62;100965.03;5032507;28;20043;-76
2023/07/26 02:27:54;;;;;;;10.60;4.28;;;;;;;13.57;90.03;100970.09;5031882;28;20120;-76
2023/07/26 02:30:20;;;;;;;13.45;4.65;;;;;;;13.46;90.16;100965.59;5033808;28;20033;-76
2023/07/26 02:32:45;;;;;;;11.85;3.90;;;;;;;13.42;91.34;100962.28;5033838;28;20441;-76
2023/07/26 02:35:10;;;;;;;11.60;4.28;;;;;;;13.37;91.50;100971.78;5033642;28;20112;-76
2023/07/26 02:37:36;;;;;;;12.10;4.10;;;;;;;13.36;93.18;100970.06;5032499;28;20029;-76
2023/07/26 02:40:01;;;;;;;11.80;4.40;;;;;;;13.29;93.27;100961.56;5033556;28;20037;-76
2023/07/26 02:42:27;;;;;;;14.27;4.63;;;;;;;13.25;93.20;100952.88;5027249;28;20124;-76
2023/07/26 02:44:53;;;;;;;11.45;4.30;;;;;;;13.23;93.10;100962.91;5033649;28;20067;-76
2023/07/26 02:47:19;;;;;;;13.63;4.88;;;;;;;13.23;93.50;100962.06;5032306;28;20071;-76
2023/07/26 02:49:44;;;;;;;12.93;4.43;;;;;;;13.23;94.17;100968.31;5033476;28;20033;-76
2023/07/26 02:52:09;;;;;;;16.27;5.10;;;;;;;13.24;93.44;100972.75;5032075;28;20052;-76
2023/07/26 02:54:35;;;;;;;12.27;4.43;;;;;;;13.19;92.09;100971.41;5033452;28;20112;-76
2023/07/26 02:57:00;;;;;;;12.02;4.20;;;;;;;13.24;94.24;100980.84;5031826;28;20037;-76
2023/07/26 02:59:25;;;;;;;11.23;4.10;;;;;;;13.30;94.90;100979.47;5031268;28;20076;-76
2023/07/26 03:01:51;;;;;;;12.23;4.78;;;;;;;13.32;94.59;100985.59;5031332;28;20040;-76
2023/07/26 03:04:16;;;;;;;17.58;5.05;;;;;;;13.33;95.21;100983.78;5031908;28;20009;-76
2023/07/26 03:06:42;;;;;;;12.43;4.43;;;;;;;13.32;95.36;100977.50;5032101;28;20512;-76
2023/07/26 03:09:07;;;;;;;15.73;5.03;;;;;;;13.33;96.58;100979.22;5031939;28;20029;-76
2023/07/26 03:11:32;;;;;;;19.02;6.00;;;;;;;13.38;97.18;100982.44;5028754;28;20079;-76
2023/07/26 03:13:58;;;;;;;13.85;5.03;;;;;;;13.40;97.14;100971.50;5033011;28;20076;-76
2023/07/26 03:16:23;;;;;;;16.80;5.13;;;;;;;13.36;96.27;100973.59;5032683;28;20041;-76
2023/07/26 03:18:49;;;;;;;13.90;4.82;;;;;;;13.35;96.31;100966.47;5031590;28;20056;-76
2023/07/26 03:21:14;;;;;;;12.45;4.75;;;;;;;13.28;96.02;100968.81;5031489;28;20057;-76
2023/07/26 03:23:39;;;;;;;14.00;4.35;;;;;;;13.29;97.81;100966.97;5032431;28;20509;-76
2023/07/26 03:26:05;;;;;;;15.23;4.93;;;;;;;13.23;96.71;100976.41;5032459;28;20024;-76
2023/07/26 03:28:30;;;;;;;12.27;4.50;;;;;;;13.18;97.75;100977.81;5031595;28;20049;-76
2023/07/26 03:30:56;;;;;;;11.45;4.25;;;;;;;13.15;99.23;100973.50;5032611;28;20104;-76
2023/07/26 03:33:21;;;;;;;12.25;4.10;;;;;;;13.06;99.15;100985.03;5032805;28;20370;-76
2023/07/26 03:35:46;;;;;;;12.63;4.43;;;;;;;12.94;99.27;100990.47;5032458;28;20025;-76
2023/07/26 03:38:12;;;;;;;15.73;4.93;;;;;;;12.91;99.29;100992.53;5032618;28;20064;-76
2023/07/26 03:40:39;;;;;;;13.40;4.85;;;;;;;12.86;99.97;100990.22;5032784;28;20033;-76
2023/07/26 03:43:04;;;;;;;12.30;4.35;;;;;;;12.80;99.75;100996.13;5025695;28;20034;-76
2023/07/26 03:45:30;;;;;;;12.70;4.30;;;;;;;12.77;99.92;100988.28;5031109;28;20033;-76
2023/07/26 03:47:55;;;;;;;10.50;3.92;;;;;;;12.81;100.00;100988.88;5032398;28;20029;-76
2023/07/26 03:50:21;;;;;;;13.32;3.97;;;;;;;12.81;99.63;100989.75;5032281;28;20243;-76
2023/07/26 03:52:47;;;;;;;12.15;4.03;;;;;;;12.80;99.74;100990.72;5031190;28;20021;-76
2023/07/26 03:55:13;;;;;;;11.50;3.90;;;;;;;12.76;100.00;100983.84;5030793;28;20039;-76
2023/07/26 03:57:38;;;;;;;11.15;3.50;;;;;;;12.71;100.00;100992.31;5032289;28;20455;-76
2023/07/26 04:00:04;;;;;;;10.93;3.63;;;;;;;12.71;100.00;100991.47;5029307;28;20509;-76
2023/07/26 04:02:31;;;;;;;10.50;4.05;;;;;;;12.63;100.00;100980.44;5031190;28;20039;-76
2023/07/26 04:04:57;;;;;;;13.75;4.10;;;;;;;12.61;100.00;100985.06;5030771;28;20059;-76
2023/07/26 04:07:22;;;;;;;11.80;4.55;;;;;;;12.57;100.00;100977.22;5028357;28;20021;-76
2023/07/26 04:09:48;;;;;;;12.93;4.40;;;;;;;12.48;100.00;100983.38;5031627;28;20025;-76
2023/07/26 04:12:13;;;;;;;14.02;4.55;;;;;;;12.43;100.00;100982.88;5030420;28;20025;-76
2023/07/26 04:14:38;;;;;;;14.60;4.63;;;;;;;12.41;100.00;100979.44;5031842;28;20080;-76
2023/07/26 04:17:04;;;;;;;11.48;3.95;;;;;;;12.42;100.00;100981.16;5031544;28;20445;-76
2023/07/26 04:19:29;;;;;;;14.23;4.50;;;;;;;12.39;100.00;100984.09;5032020;28;20032;-76
2023/07/26 04:21:54;;;;;;;12.55;4.20;;;;;;;12.38;100.00;100982.38;5031998;28;20041;-76
2023/07/26 04:24:20;;;;;;;12.05;4.45;;;;;;;12.37;100.00;100986.94;5030760;28;20477;-76
2023/07/26 04:26:45;;;;;;;13.45;4.90;;;;;;;12.37;100.00;100978.84;5031726;28;20111;-76
2023/07/26 04:29:10;;;;;;;15.40;5.35;;;;;;;12.35;100.00;100980.78;5023989;28;20074;-76
2023/07/26 04:31:36;;;;;;;14.95;5.30;;;;;;;12.36;100.00;100984.34;5030695;28;20030;-76
2023/07/26 04:34:01;;;;;;;15.85;5.82;;;;;;;12.39;100.00;100976.03;5030366;28;20033;-76
2023/07/26 04:36:26;;;;;;;14.18;5.18;;;;;;;12.44;100.00;100979.19;5031762;28;20032;-76
2023/07/26 04:38:52;;;;;;;15.27;6.22;;;;;;;12.44;100.00;100976.50;5031795;28;20453;-76
2023/07/26 04:41:17;;;;;;;16.40;6.03;;;;;;;12.45;100.00;100975.53;5030484;28;20049;-76
2023/07/26 04:43:42;;;;;;;18.90;6.78;;;;;;;12.52;100.00;100982.16;5031686;28;20108;-76
2023/07/26 04:46:08;;;;;;;16.63;6.55;;;;;;;12.53;100.00;100983.88;5023630;28;20038;-76
2023/07/26 04:48:33;;;;;;;18.58;6.70;;;;;;;12.53;100.00;100977.59;5031842;28;20025;-76
2023/07/26 04:50:58;;;;;;;17.83;7.18;;;;;;;12.62;100.00;100986.81;5030479;28;20086;-76
2023/07/26 04:53:24;;;;;;;18.38;6.35;;;;;;;12.66;100.00;100989.13;5031670;28;20034;-76
2023/07/26 04:55:51;;;;;;;17.98;6.57;;;;;;;12.69;100.00;100980.78;5030228;28;20083;-76
2023/07/26 04:58:17;;;;;;;17.70;6.97;;;;;;;12.74;100.00;100989.38;5030184;28;20026;-76
2023/07/26 05:00:43;;;;;;;19.55;7.30;;;;;;;12.77;100.00;100988.28;5030446;28;20029;-76
2023/07/26 05:03:09;;;;;;;16.75;6.80;;;;;;;12.83;100.00;100982.38;5027394;28;20026;-76
2023/07/26 05:05:35;;;;;;;18.27;7.80;;;;;;;12.89;100.00;100981.03;5029692;28;20405;-76
2023/07/26 05:08:01;;;;;;;17.58;7.93;;;;;;;12.93;100.00;100979.81;5030293;28;20033;-76
2023/07/26 05:10:27;;;;;;;19.35;7.55;;;;;;;12.99;100.00;100986.53;5031504;28;20412;-76
2023/07/26 05:12:52;;;;;;;18.25;6.80;;;;;;;13.02;100.00;100983.59;5031570;28;20029;-76
2023/07/26 05:15:18;;;;;;;19.33;7.43;;;;;;;13.05;100.00;100978.78;5029634;28;20567;-76
2023/07/26 05:17:44;;;;;;;21.25;7.75;;;;;;;13.13;100.00;100975.47;5031518;28;20060;-76
2023/07/26 05:20:11;;;;;;;18.55;8.40;;;;;;;13.20;100.00;100983.94;5031493;28;20108;-76
2023/07/26 05:22:36;;;;;;;20.77;7.82;;;;;;;13.19;100.00;100985.78;5030096;28;20025;-76
2023/07/26 05:25:01;;;;;;;18.27;7.35;;;;;;;13.25;100.00;100987.09;5030058;28;20090;-76
2023/07/26 05:27:26;;;;;;;20.13;8.43;;;;;;;13.33;100.00;100989.16;5031482;28;20053;-76
2023/07/26 05:29:53;;;;;;;19.80;7.32;;;;;;;13.38;100.00;100990.53;5033739;28;20031;-76
2023/07/26 05:32:19;;;;;;;17.15;7.28;;;;;;;13.38;100.00;100987.84;5033358;28;20021;-76
2023/07/26 05:34:44;;;;;;;18.65;7.60;;;;;;;13.45;100.00;100986.31;5033391;28;20087;-76
2023/07/26 05:37:10;;;;;;;20.55;7.75;;;;;;;13.55;100.00;100980.16;5024445;28;20481;-76
2023/07/26 05:39:35;;;;;;;18.58;8.32;;;;;;;13.62;100.00;100978.66;5033629;28;20022;-76
2023/07/26 05:42:00;;;;;;;17.90;7.15;;;;;;;13.68;100.00;100982.69;5033347;28;20040;-76
2023/07/26 05:44:26;;;;;;;22.08;8.70;;;;;;;13.72;100.00;100979.59;5035006;28;20083;-76
2023/07/26 05:46:51;;;;;;;19.05;7.80;;;;;;;13.76;100.00;100991.00;5034838;28;20124;-76
2023/07/26 05:49:16;;;;;;;20.83;8.05;;;;;;;13.80;100.00;100984.34;5032198;28;20030;-76
2023/07/26 05:51:42;;;;;;;18.25;7.82;;;;;;;13.84;100.00;100993.06;5028804;28;20036;-76
2023/07/26 05:54:07;;;;;;;18.98;8.55;;;;;;;13.89;100.00;100982.72;5033361;28;20044;-76
2023/07/26 05:56:33;;;;;;;20.15;8.35;;;;;;;13.94;100.00;100992.13;5034321;28;20036;-76
2023/07/26 05:58:58;;;;;;;19.50;8.70;;;;;;;13.96;100.00;100987.44;5033249;28;20477;-76
2023/07/26 06:01:23;;;;;;;20.45;8.70;;;;;;;14.04;100.00;100985.94;5033199;28;20116;-76
2023/07/26 06:03:49;;;;;;;21.38;8.68;;;;;;;14.09;100.00;100991.81;5034433;28;20481;-76
2023/07/26 06:06:15;;;;;;;21.40;9.05;;;;;;;14.19;100.00;100995.44;5033062;28;20538;-76
2023/07/26 06:08:40;;;;;;;21.05;8.75;;;;;;;14.27;100.00;100995.63;5026178;28;20033;-76
2023/07/26 06:11:06;;;;;;;23.40;9.52;;;;;;;14.35;100.00;100997.69;5016379;28;20037;-76
2023/07/26 06:13:32;;;;;;;22.13;9.52;;;;;;;14.42;100.00;101008.78;5034273;28;20028;-76
2023/07/26 06:15:58;;;;;;;22.55;9.65;;;;;;;14.49;100.00;101020.78;5033147;28;20085;-76
2023/07/26 06:18:24;;;;;;;25.70;10.35;;;;;;;14.54;100.00;101018.56;5033392;28;20464;-76
2023/07/26 06:20:49;;;;;;;23.52;10.43;;;;;;;14.58;100.00;101024.53;5034231;28;20034;-76
2023/07/26 06:23:14;;;;;;;23.40;9.35;;;;;;;14.63;100.00;101019.63;5032325;28;20057;-76
2023/07/26 06:25:39;;;;;;;21.80;10.10;;;;;;;14.65;100.00;101021.19;5028529;28;20116;-76
2023/07/26 06:28:05;;;;;;;23.52;10.15;;;;;;;14.68;100.00;101031.78;5032878;28;20037;-76
2023/07/26 06:30:31;;;;;;;24.58;10.10;;;;;;;14.66;100.00;101039.16;5034116;28;20529;-76
2023/07/26 06:32:56;;;;;;;22.50;10.65;;;;;;;14.70;100.00;101044.28;5033912;28;20053;-76
2023/07/26 06:35:22;;;;;;;22.83;10.10;;;;;;;14.71;100.00;101043.28;5032571;28;20068;-76
2023/07/26 06:37:47;;;;;;;22.80;10.27;;;;;;;14.69;100.00;101048.84;5033891;28;20083;-76
2023/07/26 06:40:12;;;;;;;25.45;10.05;;;;;;;14.70;100.00;101045.16;5032365;28;20021;-76
2023/07/26 06:42:38;;;;;;;20.58;9.55;;;;;;;14.68;100.00;101039.88;5032489;28;20503;-76
2023/07/26 06:45:04;;;;;;;21.90;10.27;;;;;;;14.71;100.00;101048.72;5032351;28;20064;-76
2023/07/26 06:47:29;;;;;;;23.30;10.35;;;;;;;14.72;100.00;101050.44;5033947;28;20060;-76
2023/07/26 06:49:54;;;;;;;24.90;10.85;;;;;;;14.70;100.00;101055.09;5033919;28;20083;-76
2023/07/26 06:52:20;;;;;;;22.17;10.05;;;;;;;14.69;100.00;101065.06;5033673;28;20038;-76
2023/07/26 06:54:45;;;;;;;23.85;9.88;;;;;;;14.67;100.00;101056.22;5032202;28;20492;-76
2023/07/26 06:57:11;;;;;;;23.35;9.80;;;;;;;14.68;100.00;101061.53;5025226;28;20609;-76
2023/07/26 06:59:36;;;;;;;24.33;10.23;;;;;;;14.67;100.00;101056.22;5032247;28;20086;-76
2023/07/26 07:02:04;;;;;;;22.95;10.63;;;;;;;14.63;100.00;101054.78;5032254;28;20029;-76
2023/07/26 07:04:29;;;;;;;22.85;10.73;;;;;;;14.65;100.00;101063.63;5033221;28;20025;-76
2023/07/26 07:06:54;;;;;;;22.92;11.18;;;;;;;14.65;100.00;101052.81;5031859;28;20495;-76
2023/07/26 07:09:20;;;;;;;27.85;11.05;;;;;;;14.64;100.00;101062.78;5028835;28;20095;-76
2023/07/26 07:11:45;;;;;;;24.58;10.88;;;;;;;14.62;100.00;101064.75;5033004;28;20524;-76
2023/07/26 07:14:10;;;;;;;21.73;10.10;;;;;;;14.63;100.00;101074.59;5031698;28;20034;-76
2023/07/26 07:16:36;;;;;;;22.13;10.98;;;;;;;14.63;100.00;101071.03;5032798;28;20089;-76
2023/07/26 07:19:01;;;;;;;23.58;10.68;;;;;;;14.63;100.00;101082.69;5031701;28;20127;-76
2023/07/26 07:21:26;;;;;;;22.80;10.55;;;;;;;14.58;100.00;101081.34;5031604;28;20021;-76
2023/07/26 07:23:52;;;;;;;25.95;11.30;;;;;;;14.54;100.00;101086.19;5030380;28;20022;-76
2023/07/26 07:26:17;;;;;;;24.33;11.13;;;;;;;14.55;100.00;101095.97;5031936;28;20033;-76
2023/07/26 07:28:43;;;;;;;23.05;10.50;;;;;;;14.57;100.00;101099.44;5032736;28;20040;-76
2023/07/26 07:31:08;;;;;;;23.08;11.13;;;;;;;14.58;100.00;101097.56;5024579;28;20619;-76
2023/07/26 07:33:34;;;;;;;23.27;11.20;;;;;;;14.59;100.00;101100.13;5031316;28;20026;-76
2023/07/26 07:36:00;;;;;;;25.77;11.93;;;;;;;14.60;100.00;101099.16;5032537;28;20113;-76
2023/07/26 07:38:25;;;;;;;24.65;10.90;;;;;;;14.61;100.00;101102.72;5031465;28;20021;-76
2023/07/26 07:40:50;;;;;;;24.00;11.13;;;;;;;14.61;100.00;101106.31;5032416;28;20040;-76
2023/07/26 07:43:16;;;;;;;25.45;11.45;;;;;;;14.64;100.00;101110.59;5024220;28;20492;-76
2023/07/26 07:45:42;;;;;;;24.25;11.07;;;;;;;14.67;100.00;101107.63;5030743;28;20105;-76
2023/07/26 07:48:08;;;;;;;24.80;11.32;;;;;;;14.75;100.00;101107.81;5031322;28;20107;-76
2023/07/26 07:50:33;;;;;;;25.88;11.73;;;;;;;14.80;100.00;101096.59;5031144;28;20027;-76
2023/07/26 07:52:58;;;;;;;23.55;11.57;;;;;;;14.87;100.00;101097.78;5031953;28;20033;-76
2023/07/26 07:55:24;;;;;;;23.58;11.23;;;;;;;14.90;100.00;101094.78;5030750;28;20394;-76
2023/07/26 07:57:49;;;;;;;23.83;11.80;;;;;;;14.98;100.00;101094.13;5032459;28;20560;-76
2023/07/26 08:00:15;;;;;;;23.83;11.43;;;;;;;15.10;100.00;101105.72;5032579;28;20345;-76
2023/07/26 08:02:40;;;;;;;22.15;10.98;;;;;;;15.15;100.00;101090.81;5030408;28;20080;-76
2023/07/26 08:05:06;;;;;;;23.05;11.80;;;;;;;15.20;100.00;101095.81;5032332;28;20025;-76
2023/07/26 08:07:31;;;;;;;22.88;11.00;;;;;;;15.26;100.00;101097.09;5031039;28;20072;-76
2023/07/26 08:09:56;;;;;;;24.58;11.73;;;;;;;15.33;100.00;101093.69;5031116;28;20033;-76
2023/07/26 08:12:22;;;;;;;23.83;12.52;;;;;;;15.43;100.00;101096.41;5032514;28;20481;-76
2023/07/26 08:14:49;;;;;;;27.83;13.77;;;;;;;15.51;100.00;101098.47;5027817;28;20112;-76
2023/07/26 08:17:15;;;;;;;24.48;10.93;;;;;;;15.57;100.00;101103.31;5028134;28;20053;-76
2023/07/26 08:19:40;;;;;;;22.38;10.57;;;;;;;15.65;100.00;101094.47;5031329;28;20033;-76
2023/07/26 08:22:06;;;;;;;24.45;11.95;;;;;;;15.72;100.00;101091.09;5032516;28;20021;-76
2023/07/26 08:24:31;;;;;;;25.75;11.50;;;;;;;15.81;100.00;101099.38;5032517;28;20022;-76
2023/07/26 08:26:56;;;;;;;21.92;10.93;;;;;;;15.87;100.00;101093.41;5031833;28;20415;-76
2023/07/26 08:29:21;;;;;;;23.23;11.15;;;;;;;15.94;100.00;101081.00;5033769;28;20032;-76
2023/07/26 08:31:47;;;;;;;22.42;11.80;;;;;;;16.03;100.00;101088.31;5029993;28;20036;-76
2023/07/26 08:34:12;;;;;;;22.77;10.95;;;;;;;16.11;100.00;101090.28;5028947;28;20029;-76
2023/07/26 08:36:37;;;;;;;21.63;11.23;;;;;;;16.18;100.00;101096.84;5024275;28;20049;-76
2023/07/26 08:39:03;;;;;;;24.08;11.82;;;;;;;16.20;100.00;101094.00;5031681;28;20037;-76
2023/07/26 08:41:30;;;;;;;21.27;10.75;;;;;;;16.19;100.00;101092.28;5031315;28;20473;-76
2023/07/26 08:43:59;;;;;;;24.60;11.60;;;;;;;16.22;100.00;101094.69;5032317;28;20034;-76
2023/07/26 08:46:27;;;;;;;23.92;11.27;;;;;;;16.28;99.59;101096.81;5025903;28;20112;-76
2023/07/26 08:48:52;;;;;;;23.60;10.98;;;;;;;16.35;99.19;101095.25;5032558;28;20047;-76
2023/07/26 08:51:20;;;;;;;25.02;10.88;;;;;;;16.42;98.77;101092.84;5031088;28;20128;-76
2023/07/26 08:53:47;;;;;;;23.00;10.90;;;;;;;16.49;99.63;101087.69;5028841;28;20033;-76
2023/07/26 08:56:14;;;;;;;24.23;10.98;;;;;;;16.58;99.81;101084.94;5026718;28;20415;-76
2023/07/26 08:58:40;;;;;;;21.83;9.73;;;;;;;16.68;97.21;101084.09;5032880;28;20432;-76
2023/07/26 09:01:06;;;;;;;21.23;8.10;;;;;;;16.73;92.50;101079.91;5031152;28;20026;-76
2023/07/26 09:03:31;;;;;;;18.27;7.82;;;;;;;16.82;92.94;101083.59;5032809;28;20528;-76
2023/07/26 09:06:08;;;;;;;17.10;7.43;;;;;;;16.90;91.44;101085.63;5034852;28;20037;-76
2023/07/26 09:08:34;;;;;;;17.13;6.95;;;;;;;17.02;91.56;101076.28;5030604;28;20026;-76
2023/07/26 09:11:01;;;;;;;19.48;7.60;;;;;;;17.08;87.20;101070.25;5028345;28;20040;-76
2023/07/26 09:13:27;;;;;;;19.52;7.40;;;;;;;17.14;87.85;101081.53;5034815;28;20033;-76
2023/07/26 09:15:52;;;;;;;21.02;7.97;;;;;;;17.10;85.23;101078.22;5032616;28;20511;-76
2023/07/26 09:18:17;;;;;;;19.42;7.38;;;;;;;17.05;84.52;101080.56;5034122;28;20033;-76
2023/07/26 09:20:43;;;;;;;19.23;8.07;;;;;;;17.09;90.26;101080.09;5034029;28;20068;-76
2023/07/26 09:23:10;;;;;;;19.90;7.53;;;;;;;17.16;90.08;101084.94;5034355;28;20115;-76
2023/07/26 09:25:44;;;;;;;20.85;7.60;;;;;;;17.20;88.81;101083.63;5033839;28;20391;-76
2023/07/26 09:28:11;;;;;;;18.13;6.85;;;;;;;17.28;88.19;101076.44;5026628;28;20040;-76
2023/07/26 09:30:37;;;;;;;19.00;6.80;;;;;;;17.32;84.07;101085.16;5030583;28;20029;-76
2023/07/26 09:33:05;;;;;;;23.17;6.38;;;;;;;17.35;83.76;101084.84;5033190;28;20065;-76
2023/07/26 09:35:34;;;;;;;18.65;6.55;;;;;;;17.35;81.74;101084.84;5033388;28;20032;-76
2023/07/26 09:38:10;;;;;;;18.60;6.25;;;;;;;17.34;78.92;101094.00;5035013;28;20115;-76
2023/07/26 09:40:36;;;;;;;14.05;5.00;;;;;;;17.26;76.38;101094.75;5034887;28;20026;-76
2023/07/26 09:43:01;;;;;;;12.35;3.90;;;;;;;17.20;71.03;101089.91;5034925;28;20411;-76
2023/07/26 09:45:26;;;;;;;8.70;3.42;;;;;;;17.20;69.71;101087.19;5033698;28;20016;-76
2023/07/26 09:48:03;;;;;;;10.48;3.20;;;;;;;17.25;70.76;101081.34;5034672;28;20026;-76
2023/07/26 09:50:29;;;;;;;6.90;2.80;;;;;;;17.39;70.25;101085.41;5034510;28;20021;-76
2023/07/26 09:52:56;;;;;;;7.35;2.72;;;;;;;17.48;67.75;101081.75;5033575;28;20048;-76
2023/07/26 09:55:23;;;;;;;9.77;3.30;;;;;;;17.52;68.19;101082.31;5034580;28;20102;-76
2023/07/26 09:57:52;;;;;;;9.73;3.35;;;;;;;17.53;71.11;101082.16;5034775;28;20029;-76
2023/07/26 10:00:18;;;;;;;9.60;3.13;;;;;;;17.50;67.61;101084.31;5034862;28;20029;-76
2023/07/26 10:02:48;;;;;;;12.27;3.83;;;;;;;17.48;71.83;101095.34;5034565;28;20392;-76
2023/07/26 10:05:16;;;;;;;13.38;4.25;;;;;;;17.43;71.97;101087.66;5032816;28;20380;-76
2023/07/26 10:07:44;;;;;;;12.55;4.47;;;;;;;17.41;74.89;101083.38;5025488;28;20045;-76
2023/07/26 10:10:10;;;;;;;14.98;4.95;;;;;;;17.39;76.99;101077.25;5034401;28;20037;-76
2023/07/26 10:12:38;;;;;;;16.13;4.55;;;;;;;17.34;73.16;101083.13;5031939;28;20025;-76
2023/07/26 10:15:05;;;;;;;13.43;4.75;;;;;;;17.30;74.70;101076.28;5042682;28;20066;-76
2023/07/26 10:17:32;;;;;;;15.50;5.40;;;;;;;17.26;75.15;101083.03;5031467;28;20456;-76
2023/07/26 10:19:58;;;;;;;15.55;5.35;;;;;;;17.26;77.38;101069.44;5032886;28;20030;-76
2023/07/26 10:22:24;;;;;;;16.55;6.05;;;;;;;17.36;81.72;101064.81;5034275;28;20028;-76
2023/07/26 10:24:50;;;;;;;18.15;6.53;;;;;;;17.53;82.49;101062.31;5032770;28;20068;-76
2023/07/26 10:27:16;;;;;;;17.00;6.38;;;;;;;17.64;80.72;101068.38;5033071;28;20049;-77
2023/07/26 10:29:42;;;;;;;17.48;6.15;;;;;;;17.76;80.94;101071.72;5032574;28;20499;-77
2023/07/26 10:32:08;;;;;;;19.27;6.15;;;;;;;17.86;82.50;101071.63;5032896;28;20025;-77
2023/07/26 10:34:33;;;;;;;18.17;5.72;;;;;;;17.94;80.75;101071.75;5032293;28;20021;-77
2023/07/26 10:37:06;;;;;;;17.23;6.05;;;;;;;17.92;78.47;101070.19;5032490;28;20500;-76
2023/07/26 10:39:33;;;;;;;18.40;6.07;;;;;;;17.94;80.40;101068.19;5032818;28;20021;-76
2023/07/26 10:41:59;;;;;;;15.65;5.85;;;;;;;17.92;79.68;101064.75;5033332;28;20427;-76
2023/07/26 10:44:24;;;;;;;16.52;5.43;;;;;;;17.88;78.29;101066.91;5032711;28;20125;-76
2023/07/26 10:47:03;;;;;;;17.25;6.40;;;;;;;17.87;79.40;101069.78;5033919;28;20135;-76
2023/07/26 10:49:33;;;;;;;17.38;5.75;;;;;;;17.84;78.87;101067.38;5024635;28;20021;-76
2023/07/26 10:52:05;;;;;;;19.50;6.47;;;;;;;17.93;79.83;101063.75;5029428;28;20449;-77
2023/07/26 10:54:45;;;;;;;17.70;6.03;;;;;;;18.02;80.58;101057.38;5025670;28;20385;-77
2023/07/26 10:57:26;;;;;;;15.77;5.65;;;;;;;18.12;75.54;101065.44;5033412;28;20021;-77
2023/07/26 11:00:11;;;;;;;18.83;6.00;;;;;;;18.25;76.46;101056.91;5032066;28;20044;-77
2023/07/26 11:02:43;;;;;;;16.83;5.45;;;;;;;18.32;73.35;101057.97;5032244;28;20794;-77
2023/07/26 11:05:20;;;;;;;15.75;5.75;;;;;;;18.36;71.22;101059.38;5033046;28;20025;-77
2023/07/26 11:08:03;;;;;;;18.10;5.13;;;;;;;18.47;74.86;101063.69;5023874;28;20079;-77